createdAt,value
2023-02-01T00:01:29.488Z,-0.66
2023-02-01T00:03:57.795Z,-0.50
2023-02-01T00:06:25.722Z,-0.64
2023-02-01T00:08:57.723Z,-0.80
2023-02-01T00:11:26.469Z,-0.57
2023-02-01T00:13:54.448Z,-0.49
2023-02-01T00:16:28.279Z,-0.51
2023-02-01T00:19:11.290Z,-0.56
2023-02-01T00:21:42.654Z,-0.62
2023-02-01T00:24:14.462Z,-0.61
2023-02-01T00:26:45.566Z,-0.67
2023-02-01T00:29:19.191Z,-0.53
2023-02-01T00:31:47.595Z,-0.59
2023-02-01T00:34:19.891Z,-0.70
2023-02-01T00:36:48.129Z,-0.59
2023-02-01T00:39:17.395Z,-0.70
2023-02-01T00:41:48.015Z,-0.65
2023-02-01T00:44:16.259Z,-0.61
2023-02-01T00:46:49.817Z,-0.68
2023-02-01T00:49:18.140Z,-0.58
2023-02-01T00:51:46.015Z,-0.70
2023-02-01T00:54:13.878Z,-0.48
2023-02-01T00:56:45.353Z,-0.61
2023-02-01T00:59:13.874Z,-0.76
2023-02-01T01:01:42.203Z,-0.63
2023-02-01T01:04:10.383Z,-0.65
2023-02-01T01:06:38.588Z,-0.66
2023-02-01T01:09:08.847Z,-0.68
2023-02-01T01:11:39.903Z,-0.59
2023-02-01T01:14:11.104Z,-0.50
2023-02-01T01:16:39.154Z,-0.49
2023-02-01T01:19:06.887Z,-0.68
2023-02-01T01:21:35.476Z,-0.63
2023-02-01T01:24:03.311Z,-0.58
2023-02-01T01:26:31.957Z,-0.61
2023-02-01T01:29:01.160Z,-0.61
2023-02-01T01:31:29.777Z,-0.66
2023-02-01T01:34:00.084Z,-0.58
2023-02-01T01:36:29.954Z,-0.58
2023-02-01T01:38:58.376Z,-0.54
2023-02-01T01:41:32.605Z,-0.54
2023-02-01T01:44:07.640Z,-0.65
2023-02-01T01:46:42.102Z,-0.51
2023-02-01T01:49:21.359Z,-0.47
2023-02-01T01:51:56.749Z,-0.55
2023-02-01T01:54:41.037Z,-0.62
2023-02-01T01:57:34.656Z,-0.53
2023-02-01T02:00:15.206Z,-0.46
2023-02-01T02:02:48.325Z,-0.46
2023-02-01T02:05:19.297Z,-0.72
2023-02-01T02:07:50.802Z,-0.69
2023-02-01T02:10:19.277Z,-0.56
2023-02-01T02:12:49.739Z,-0.32
2023-02-01T02:15:18.482Z,-0.53
2023-02-01T02:18:04.126Z,-0.56
2023-02-01T02:20:53.908Z,-0.61
2023-02-01T02:23:28.142Z,-0.38
2023-02-01T02:26:24.198Z,-0.55
2023-02-01T02:29:20.507Z,-0.52
2023-02-01T02:31:59.663Z,-0.55
2023-02-01T02:34:41.746Z,-0.78
2023-02-01T02:37:12.882Z,-0.39
2023-02-01T02:40:08.553Z,-0.48
2023-02-01T02:43:10.280Z,-0.50
2023-02-01T02:46:23.281Z,-0.36
2023-02-01T02:49:18.843Z,-0.39
2023-02-01T02:52:25.121Z,-0.65
2023-02-01T02:54:56.064Z,-0.67
2023-02-01T02:57:52.007Z,-0.55
2023-02-01T03:00:50.910Z,-0.55
2023-02-01T03:03:39.983Z,-0.61
2023-02-01T03:06:17.283Z,-0.55
2023-02-01T03:08:46.506Z,-0.64
2023-02-01T03:11:16.749Z,-0.47
2023-02-01T03:14:01.236Z,-0.50
2023-02-01T03:16:43.630Z,-0.64
2023-02-01T03:19:51.535Z,-0.57
2023-02-01T03:22:25.515Z,-0.53
2023-02-01T03:24:56.706Z,-0.57
2023-02-01T03:27:51.169Z,-0.62
2023-02-01T03:30:23.805Z,-0.67
2023-02-01T03:33:02.306Z,-0.46
2023-02-01T03:36:03.042Z,-0.43
2023-02-01T03:38:39.803Z,-0.66
2023-02-01T03:41:48.262Z,-0.66
2023-02-01T03:44:20.633Z,-0.64
2023-02-01T03:47:00.651Z,-0.68
2023-02-01T03:49:51.587Z,-0.62
2023-02-01T03:52:32.270Z,-0.55
2023-02-01T03:55:01.242Z,-0.76
2023-02-01T03:57:38.718Z,-0.56
2023-02-01T04:00:09.674Z,-0.42
2023-02-01T04:02:45.391Z,-0.56
2023-02-01T04:05:13.781Z,-0.43
2023-02-01T04:07:42.895Z,-0.45
2023-02-01T04:10:12.104Z,-0.50
2023-02-01T04:12:41.681Z,-0.57
2023-02-01T04:15:09.981Z,-0.33
2023-02-01T04:17:40.782Z,-0.42
2023-02-01T04:20:10.349Z,-0.53
2023-02-01T04:22:38.258Z,-0.55
2023-02-01T04:25:07.117Z,-0.58
2023-02-01T04:27:35.786Z,-0.52
2023-02-01T04:30:05.196Z,-0.49
2023-02-01T04:32:33.065Z,-0.45
2023-02-01T04:35:01.356Z,-0.58
2023-02-01T04:37:30.839Z,-0.66
2023-02-01T04:39:58.802Z,-0.58
2023-02-01T04:42:27.100Z,-0.66
2023-02-01T04:44:54.984Z,-0.68
2023-02-01T04:47:26.092Z,-0.70
2023-02-01T04:49:54.294Z,-0.73
2023-02-01T04:52:22.184Z,-0.66
2023-02-01T04:54:56.619Z,-0.71
2023-02-01T04:57:28.916Z,-0.71
2023-02-01T04:59:59.768Z,-0.77
2023-02-01T05:02:30.932Z,-0.68
2023-02-01T05:04:58.894Z,-0.71
2023-02-01T05:07:27.141Z,-0.69
2023-02-01T05:09:54.948Z,-0.72
2023-02-01T05:13:01.265Z,-0.46
2023-02-01T05:15:30.399Z,-0.67
2023-02-01T05:17:58.606Z,-0.56
2023-02-01T05:20:26.565Z,-0.44
2023-02-01T05:22:54.905Z,-0.56
2023-02-01T05:25:22.779Z,-0.51
2023-02-01T05:27:55.299Z,-0.77
2023-02-01T05:30:26.535Z,-0.66
2023-02-01T05:32:54.677Z,-0.79
2023-02-01T05:35:22.589Z,-0.76
2023-02-01T05:37:50.953Z,-0.45
2023-02-01T05:40:19.144Z,-0.73
2023-02-01T05:42:47.122Z,-0.72
2023-02-01T05:45:15.765Z,-0.88
2023-02-01T05:47:43.839Z,-0.75
2023-02-01T05:50:12.016Z,-0.75
2023-02-01T05:52:40.253Z,-0.56
2023-02-01T05:55:08.453Z,-0.56
2023-02-01T05:57:36.303Z,-0.67
2023-02-01T06:00:05.292Z,-0.51
2023-02-01T06:02:40.681Z,-0.55
2023-02-01T06:05:09.401Z,-0.65
2023-02-01T06:07:37.208Z,-0.63
2023-02-01T06:10:08.225Z,-0.61
2023-02-01T06:12:36.575Z,-0.50
2023-02-01T06:15:04.808Z,-0.66
2023-02-01T06:17:32.611Z,-0.64
2023-02-01T06:20:00.753Z,-0.61
2023-02-01T06:22:28.915Z,-0.66
2023-02-01T06:24:56.626Z,-0.47
2023-02-01T06:27:24.819Z,-0.51
2023-02-01T06:29:52.717Z,-0.59
2023-02-01T06:32:21.074Z,-0.57
2023-02-01T06:34:49.173Z,-0.49
2023-02-01T06:37:17.056Z,-0.52
2023-02-01T06:39:44.886Z,-0.54
2023-02-01T06:42:13.322Z,-0.45
2023-02-01T06:44:41.137Z,-0.51
2023-02-01T06:47:09.441Z,-0.45
2023-02-01T06:49:37.732Z,-0.40
2023-02-01T06:52:05.536Z,-0.33
2023-02-01T06:54:34.949Z,-0.29
2023-02-01T06:57:03.186Z,-0.22
2023-02-01T06:59:33.773Z,-0.31
2023-02-01T07:02:01.709Z,-0.24
2023-02-01T07:04:29.960Z,-0.31
2023-02-01T07:06:57.649Z,-0.15
2023-02-01T07:09:25.469Z,-0.16
2023-02-01T07:11:53.605Z,-0.21
2023-02-01T07:14:21.477Z,-0.21
2023-02-01T07:16:49.316Z,-0.25
2023-02-01T07:19:17.560Z,-0.15
2023-02-01T07:21:45.403Z,-0.06
2023-02-01T07:24:16.052Z,-0.12
2023-02-01T07:26:44.280Z,-0.08
2023-02-01T07:29:12.122Z,-0.08
2023-02-01T07:31:39.834Z,0.01
2023-02-01T07:34:08.050Z,0.10
2023-02-01T07:36:37.547Z,0.07
2023-02-01T07:39:05.546Z,0.15
2023-02-01T07:41:33.501Z,0.15
2023-02-01T07:44:01.106Z,0.18
2023-02-01T07:46:29.020Z,0.20
2023-02-01T07:48:57.478Z,0.09
2023-02-01T07:51:25.271Z,0.20
2023-02-01T07:53:54.736Z,0.26
2023-02-01T07:56:24.446Z,0.28
2023-02-01T07:58:54.054Z,0.28
2023-02-01T08:01:27.617Z,0.38
2023-02-01T08:04:00.641Z,0.44
2023-02-01T08:06:30.436Z,0.37
2023-02-01T08:08:59.317Z,0.55
2023-02-01T08:11:27.630Z,0.57
2023-02-01T08:13:55.799Z,0.57
2023-02-01T08:16:25.268Z,0.53
2023-02-01T08:18:54.590Z,0.58
2023-02-01T08:21:25.821Z,0.66
2023-02-01T08:23:54.214Z,0.65
2023-02-01T08:26:24.603Z,0.63
2023-02-01T08:29:01.576Z,0.63
2023-02-01T08:31:30.946Z,0.66
2023-02-01T08:34:01.283Z,0.63
2023-02-01T08:36:31.301Z,0.67
2023-02-01T08:38:59.297Z,0.63
2023-02-01T08:41:30.320Z,0.65
2023-02-01T08:43:58.821Z,0.67
2023-02-01T08:46:26.816Z,0.66
2023-02-01T08:48:57.650Z,0.71
2023-02-01T08:51:25.870Z,0.76
2023-02-01T08:53:53.883Z,0.67
2023-02-01T08:56:21.734Z,0.79
2023-02-01T08:58:49.890Z,0.79
2023-02-01T09:01:18.951Z,0.70
2023-02-01T09:03:47.195Z,0.77
2023-02-01T09:06:16.647Z,0.81
2023-02-01T09:08:45.110Z,0.86
2023-02-01T09:11:18.610Z,0.87
2023-02-01T09:13:48.502Z,0.93
2023-02-01T09:16:16.934Z,1.07
2023-02-01T09:18:55.623Z,1.17
2023-02-01T09:21:33.164Z,1.24
2023-02-01T09:24:01.087Z,1.29
2023-02-01T09:26:33.062Z,1.31
2023-02-01T09:29:01.894Z,1.28
2023-02-01T09:31:30.035Z,1.29
2023-02-01T09:33:58.011Z,1.32
2023-02-01T09:36:26.281Z,1.40
2023-02-01T09:38:56.939Z,1.42
2023-02-01T09:41:54.024Z,1.54
2023-02-01T09:44:35.577Z,1.54
2023-02-01T09:47:17.452Z,1.52
2023-02-01T09:49:57.427Z,1.40
2023-02-01T09:52:35.997Z,1.51
2023-02-01T09:55:14.993Z,1.47
2023-02-01T09:57:59.229Z,1.48
2023-02-01T10:00:35.045Z,1.33
2023-02-01T10:03:03.545Z,1.39
2023-02-01T10:05:43.591Z,1.40
2023-02-01T10:08:27.834Z,1.43
2023-02-01T10:11:05.082Z,1.45
2023-02-01T10:13:40.035Z,1.42
2023-02-01T10:16:18.865Z,1.32
2023-02-01T10:19:16.179Z,1.26
2023-02-01T10:21:46.889Z,1.34
2023-02-01T10:24:39.945Z,1.41
2023-02-01T10:27:19.949Z,1.47
2023-02-01T10:29:55.852Z,1.34
2023-02-01T10:32:31.844Z,1.29
2023-02-01T10:35:02.999Z,1.22
2023-02-01T10:37:35.651Z,1.13
2023-02-01T10:40:15.834Z,1.06
2023-02-01T10:42:47.948Z,1.00
2023-02-01T10:45:21.945Z,1.07
2023-02-01T10:47:52.409Z,1.04
2023-02-01T10:51:01.974Z,1.02
2023-02-01T10:54:02.001Z,1.04
2023-02-01T10:56:32.617Z,1.00
2023-02-01T10:59:06.158Z,1.09
2023-02-01T11:01:46.595Z,1.13
2023-02-01T11:04:17.932Z,1.18
2023-02-01T11:07:08.816Z,1.27
2023-02-01T11:09:41.334Z,1.33
2023-02-01T11:12:28.405Z,1.31
2023-02-01T11:15:15.100Z,1.22
2023-02-01T11:17:49.188Z,1.13
2023-02-01T11:20:43.475Z,1.07
2023-02-01T11:23:22.961Z,1.03
2023-02-01T11:26:02.919Z,1.06
2023-02-01T11:28:39.118Z,1.06
2023-02-01T11:31:13.440Z,1.02
2023-02-01T11:33:51.866Z,0.87
2023-02-01T11:36:26.474Z,0.72
2023-02-01T11:39:16.488Z,0.89
2023-02-01T11:42:16.396Z,0.88
2023-02-01T11:44:47.530Z,0.87
2023-02-01T11:47:29.274Z,0.74
2023-02-01T11:50:00.535Z,0.83
2023-02-01T11:52:58.218Z,0.81
2023-02-01T11:55:48.440Z,0.78
2023-02-01T11:58:35.839Z,0.65
2023-02-01T12:01:18.245Z,0.62
2023-02-01T12:03:49.323Z,0.82
2023-02-01T12:09:25.210Z,0.80
2023-02-01T12:12:10.757Z,0.65
2023-02-01T12:15:12.464Z,0.52
2023-02-01T12:17:55.396Z,0.35
2023-02-01T12:20:41.406Z,0.22
2023-02-01T12:23:50.663Z,0.56
2023-02-01T12:26:33.590Z,0.54
2023-02-01T12:29:35.040Z,0.63
2023-02-01T12:32:14.364Z,0.40
2023-02-01T12:34:42.199Z,0.34
2023-02-01T12:37:52.909Z,0.20
2023-02-01T12:40:59.012Z,0.48
2023-02-01T12:43:37.010Z,0.38
2023-02-01T12:46:14.726Z,0.17
2023-02-01T12:48:54.756Z,0.46
2023-02-01T12:51:28.483Z,0.42
2023-02-01T12:54:12.297Z,0.32
2023-02-01T12:56:52.774Z,0.03
2023-02-01T12:59:27.897Z,0.33
2023-02-01T13:02:06.225Z,0.27
2023-02-01T13:04:53.601Z,0.23
2023-02-01T13:07:45.989Z,0.12
2023-02-01T13:10:37.011Z,0.10
2023-02-01T13:13:19.909Z,0.18
2023-02-01T13:15:57.905Z,0.07
2023-02-01T13:18:33.629Z,0.05
2023-02-01T13:21:22.989Z,-0.25
2023-02-01T13:23:52.618Z,-0.49
2023-02-01T13:26:21.078Z,-0.02
2023-02-01T13:28:55.640Z,-0.24
2023-02-01T13:32:01.323Z,-0.41
2023-02-01T13:34:50.830Z,-0.37
2023-02-01T13:37:53.711Z,-0.61
2023-02-01T13:40:40.262Z,-0.22
2023-02-01T13:43:18.981Z,-0.58
2023-02-01T13:45:53.667Z,-0.75
2023-02-01T13:48:49.859Z,-0.57
2023-02-01T13:51:36.880Z,-0.42
2023-02-01T13:54:07.235Z,-0.23
2023-02-01T13:56:44.263Z,-0.51
2023-02-01T13:59:37.062Z,-0.74
2023-02-01T14:02:41.901Z,-0.45
2023-02-01T14:05:31.135Z,-0.22
2023-02-01T14:08:08.323Z,-0.40
2023-02-01T14:10:58.177Z,-0.47
2023-02-01T14:13:37.726Z,-0.48
2023-02-01T14:16:05.957Z,-0.71
2023-02-01T14:18:39.191Z,-0.38
2023-02-01T14:21:30.603Z,-0.62
2023-02-01T14:24:18.681Z,-0.45
2023-02-01T14:26:54.231Z,-0.29
2023-02-01T14:29:33.462Z,-0.63
2023-02-01T14:32:14.325Z,-0.61
2023-02-01T14:34:48.239Z,-0.37
2023-02-01T14:37:19.312Z,-0.58
2023-02-01T14:39:47.124Z,-0.32
2023-02-01T14:42:44.738Z,-0.33
2023-02-01T14:45:26.394Z,-0.16
2023-02-01T14:47:55.973Z,-0.22
2023-02-01T14:50:38.696Z,-0.33
2023-02-01T14:53:13.998Z,-0.43
2023-02-01T14:55:50.218Z,-0.63
2023-02-01T14:58:37.590Z,-0.45
2023-02-01T15:01:18.646Z,-0.64
2023-02-01T15:03:52.306Z,-0.24
2023-02-01T15:06:30.516Z,-0.16
2023-02-01T15:09:10.937Z,-0.16
2023-02-01T15:12:00.978Z,-0.12
2023-02-01T15:15:10.914Z,-0.31
2023-02-01T15:17:39.764Z,-0.11
2023-02-01T15:20:21.267Z,-0.37
2023-02-01T15:23:07.457Z,-0.40
2023-02-01T15:25:40.909Z,-0.60
2023-02-01T15:28:15.373Z,-0.36
2023-02-01T15:30:54.297Z,-0.25
2023-02-01T15:33:22.997Z,-0.44
2023-02-01T15:35:53.680Z,-0.32
2023-02-01T15:38:32.114Z,-0.17
2023-02-01T15:41:19.044Z,-0.37
2023-02-01T15:43:55.947Z,-0.45
2023-02-01T15:46:43.853Z,-0.42
2023-02-01T15:49:38.829Z,-0.55
2023-02-01T15:52:42.041Z,-0.33
2023-02-01T15:55:20.194Z,-0.51
2023-02-01T15:57:48.644Z,-0.58
2023-02-01T16:00:20.200Z,-0.75
2023-02-01T16:03:02.201Z,-0.74
2023-02-01T16:05:43.819Z,-0.50
2023-02-01T16:08:15.304Z,-0.78
2023-02-01T16:10:46.953Z,-0.80
2023-02-01T16:13:16.876Z,-0.96
2023-02-01T16:15:45.578Z,-0.78
2023-02-01T16:18:16.901Z,-0.65
2023-02-01T16:20:49.412Z,-0.93
2023-02-01T16:23:17.384Z,-0.63
2023-02-01T16:25:45.101Z,-0.83
2023-02-01T16:28:13.396Z,-0.67
2023-02-01T16:30:41.133Z,-0.43
2023-02-01T16:36:05.148Z,-0.50
2023-02-01T16:38:32.992Z,-0.42
2023-02-01T16:41:01.163Z,-0.71
2023-02-01T16:43:29.603Z,-0.87
2023-02-01T16:46:02.721Z,-0.93
2023-02-01T16:48:34.735Z,-0.57
2023-02-01T16:51:05.012Z,-0.57
2023-02-01T16:53:41.738Z,-0.77
2023-02-01T16:56:20.856Z,-0.91
2023-02-01T16:58:49.789Z,-0.69
2023-02-01T17:01:20.148Z,-0.71
2023-02-01T17:03:48.245Z,-0.65
2023-02-01T17:06:19.845Z,-0.57
2023-02-01T17:08:52.749Z,-0.75
2023-02-01T17:11:21.216Z,-0.94
2023-02-01T17:13:49.041Z,-0.83
2023-02-01T17:16:19.641Z,-0.82
2023-02-01T17:19:13.334Z,-0.77
2023-02-01T17:21:47.493Z,-0.51
2023-02-01T17:27:04.727Z,-0.49
2023-02-01T17:29:32.743Z,-0.88
2023-02-01T17:32:01.717Z,-0.95
2023-02-01T17:34:29.596Z,-0.68
2023-02-01T17:36:57.857Z,-0.95
2023-02-01T17:39:44.189Z,-0.71
2023-02-01T17:42:12.913Z,-0.65
2023-02-01T17:44:40.644Z,-0.74
2023-02-01T17:47:08.323Z,-0.71
2023-02-01T17:49:36.494Z,-0.89
2023-02-01T17:52:04.368Z,-0.70
2023-02-01T17:54:32.587Z,-0.55
2023-02-01T17:57:03.708Z,-0.69
2023-02-01T17:59:31.480Z,-0.46
2023-02-01T18:02:01.207Z,-0.57
2023-02-01T18:04:29.408Z,-0.64
2023-02-01T18:06:57.968Z,-0.60
2023-02-01T18:09:25.689Z,-1.00
2023-02-01T18:11:55.963Z,-0.93
2023-02-01T18:14:23.834Z,-0.71
2023-02-01T18:16:51.587Z,-0.76
2023-02-01T18:19:19.695Z,-0.65
2023-02-01T18:21:47.507Z,-0.76
2023-02-01T18:24:17.293Z,-0.70
2023-02-01T18:26:45.535Z,-0.65
2023-02-01T18:31:58.700Z,-0.69
2023-02-01T18:34:27.499Z,-0.76
2023-02-01T18:36:55.357Z,-0.64
2023-02-01T18:39:23.698Z,-1.03
2023-02-01T18:41:52.107Z,-0.88
2023-02-01T18:44:19.939Z,-0.70
2023-02-01T18:46:48.165Z,-0.76
2023-02-01T18:49:18.330Z,-0.89
2023-02-01T18:51:49.344Z,-0.76
2023-02-01T18:54:17.667Z,-0.89
2023-02-01T18:56:45.622Z,-0.68
2023-02-01T18:59:15.175Z,-0.68
2023-02-01T19:01:49.316Z,-1.03
2023-02-01T19:04:23.640Z,-0.71
2023-02-01T19:06:54.004Z,-0.91
2023-02-01T19:09:21.945Z,-1.07
2023-02-01T19:11:52.605Z,-0.89
2023-02-01T19:14:20.880Z,-0.90
2023-02-01T19:16:50.204Z,-0.82
2023-02-01T19:19:18.010Z,-0.87
2023-02-01T19:21:46.202Z,-0.75
2023-02-01T19:24:13.996Z,-0.78
2023-02-01T19:26:42.292Z,-0.70
2023-02-01T19:29:11.187Z,-0.71
2023-02-01T19:31:38.969Z,-0.77
2023-02-01T19:34:06.866Z,-0.87
2023-02-01T19:36:41.561Z,-1.13
2023-02-01T19:39:10.813Z,-0.90
2023-02-01T19:41:39.032Z,-0.79
2023-02-01T19:44:06.897Z,-0.69
2023-02-01T19:46:34.949Z,-0.71
2023-02-01T19:49:08.151Z,-0.79
2023-02-01T19:51:36.095Z,-0.65
2023-02-01T19:54:04.713Z,-0.89
2023-02-01T19:56:32.592Z,-0.81
2023-02-01T19:59:00.523Z,-0.83
2023-02-01T20:01:28.175Z,-0.72
2023-02-01T20:04:02.677Z,-0.78
2023-02-01T20:06:31.767Z,-0.67
2023-02-01T20:09:00.788Z,-0.92
2023-02-01T20:11:32.026Z,-0.92
2023-02-01T20:14:00.466Z,-0.85
2023-02-01T20:16:28.836Z,-0.69
2023-02-01T20:18:56.710Z,-0.93
2023-02-01T20:21:28.119Z,-0.94
2023-02-01T20:23:55.893Z,-0.94
2023-02-01T20:26:25.631Z,-0.99
2023-02-01T20:28:55.078Z,-0.96
2023-02-01T20:31:28.959Z,-0.78
2023-02-01T20:33:58.961Z,-0.75
2023-02-01T20:36:28.735Z,-0.98
2023-02-01T20:38:57.985Z,-1.08
2023-02-01T20:41:27.103Z,-0.91
2023-02-01T20:43:58.161Z,-0.77
2023-02-01T20:46:26.478Z,-0.91
2023-02-01T20:48:54.367Z,-0.83
2023-02-01T20:51:22.525Z,-1.05
2023-02-01T20:53:54.181Z,-1.00
2023-02-01T20:56:22.713Z,-0.94
2023-02-01T20:58:50.911Z,-0.78
2023-02-01T21:01:18.763Z,-1.02
2023-02-01T21:03:46.518Z,-1.04
2023-02-01T21:06:14.769Z,-0.98
2023-02-01T21:08:42.707Z,-1.05
2023-02-01T21:11:16.209Z,-1.07
2023-02-01T21:13:51.004Z,-1.17
2023-02-01T21:16:22.160Z,-1.30
2023-02-01T21:18:53.985Z,-1.25
2023-02-01T21:21:25.001Z,-1.25
2023-02-01T21:23:55.527Z,-1.26
2023-02-01T21:26:27.878Z,-1.18
2023-02-01T21:28:57.155Z,-0.97
2023-02-01T21:31:26.108Z,-1.06
2023-02-01T21:33:56.939Z,-1.18
2023-02-01T21:36:25.403Z,-1.24
2023-02-01T21:39:02.041Z,-1.27
2023-02-01T21:41:50.266Z,-1.09
2023-02-01T21:44:18.342Z,-1.32
2023-02-01T21:46:46.638Z,-1.23
2023-02-01T21:49:14.825Z,-0.98
2023-02-01T21:51:43.007Z,-1.15
2023-02-01T21:54:12.419Z,-1.26
2023-02-01T21:56:41.462Z,-1.10
2023-02-01T21:59:13.616Z,-1.23
2023-02-01T22:01:42.699Z,-1.24
2023-02-01T22:04:11.494Z,-1.03
2023-02-01T22:06:46.195Z,-1.05
2023-02-01T22:09:22.771Z,-0.95
2023-02-01T22:11:53.563Z,-1.15
2023-02-01T22:14:22.376Z,-1.20
2023-02-01T22:16:50.385Z,-1.37
2023-02-01T22:19:19.695Z,-1.26
2023-02-01T22:21:49.188Z,-1.28
2023-02-01T22:24:20.730Z,-0.98
2023-02-01T22:26:50.022Z,-1.01
2023-02-01T22:29:21.349Z,-1.24
2023-02-01T22:31:50.739Z,-1.10
2023-02-01T22:34:22.547Z,-1.34
2023-02-01T22:36:51.082Z,-1.24
2023-02-01T22:39:18.918Z,-1.25
2023-02-01T22:41:46.717Z,-1.33
2023-02-01T22:44:15.013Z,-1.24
2023-02-01T22:46:42.777Z,-1.24
2023-02-01T22:49:10.738Z,-1.24
2023-02-01T22:51:39.036Z,-1.40
2023-02-01T22:54:07.021Z,-1.19
2023-02-01T22:56:37.774Z,-1.27
2023-02-01T22:59:08.136Z,-1.46
2023-02-01T23:01:36.127Z,-1.45
2023-02-01T23:04:06.260Z,-1.27
2023-02-01T23:06:35.182Z,-1.31
2023-02-01T23:09:11.853Z,-1.36
2023-02-01T23:11:40.560Z,-1.36
2023-02-01T23:14:12.725Z,-1.31
2023-02-01T23:16:41.765Z,-1.35
2023-02-01T23:19:09.735Z,-1.47
2023-02-01T23:21:37.987Z,-1.39
2023-02-01T23:24:08.054Z,-1.19
2023-02-01T23:26:36.544Z,-1.28
2023-02-01T23:29:05.510Z,-1.07
2023-02-01T23:31:35.798Z,-1.15
2023-02-01T23:34:04.908Z,-1.21
2023-02-01T23:36:34.087Z,-1.11
2023-02-01T23:39:02.390Z,-1.05
2023-02-01T23:41:30.479Z,-1.04
2023-02-01T23:43:58.660Z,-0.99
2023-02-01T23:46:29.358Z,-1.05
2023-02-01T23:48:57.827Z,-0.99
2023-02-01T23:51:26.964Z,-0.98
2023-02-01T23:53:55.228Z,-1.19
2023-02-01T23:56:35.243Z,-1.19
2023-02-01T23:59:10.340Z,-0.92
